Time;durP1;ratioP1;P1;durP2;ratioP2;P2;SDS_P1;SDS_P2;PMS_P1;PMS_P2;Temp;Humidity;BMP_temperature;BMP_pressure;BME280_temperature;BME280_humidity;BME280_pressure;Samples;Min_cycle;Max_cycle;Signal;HPM_P1;HPM_P2
2022/07/26 00:00:43;;;;;;;9.20;6.40;;;21.20;99.90;;;;;;4999869;28;20215;-92
2022/07/26 00:03:33;;;;;;;11.00;6.55;;;21.20;99.90;;;;;;4994216;28;20234;-92
2022/07/26 00:06:22;;;;;;;8.05;6.72;;;21.20;99.90;;;;;;4998375;28;20221;-91
2022/07/26 00:09:11;;;;;;;7.75;6.45;;;21.10;99.90;;;;;;4995648;28;20233;-93
2022/07/26 00:12:01;;;;;;;8.40;6.00;;;21.00;99.90;;;;;;4993853;28;20215;-92
2022/07/26 00:14:51;;;;;;;6.32;5.72;;;21.00;99.90;;;;;;4993017;28;20324;-92
2022/07/26 00:17:40;;;;;;;7.65;6.53;;;21.00;99.90;;;;;;4984101;28;20259;-93
2022/07/26 00:20:29;;;;;;;8.10;7.03;;;21.00;99.90;;;;;;4992678;28;20230;-92
2022/07/26 00:23:19;;;;;;;7.53;6.15;;;20.90;99.90;;;;;;4994892;28;20230;-94
2022/07/26 00:26:07;;;;;;;8.68;6.18;;;20.90;99.90;;;;;;4993878;28;20346;-94
2022/07/26 00:29:02;;;;;;;7.10;6.20;;;20.90;99.90;;;;;;4997739;28;20233;-95
2022/07/26 00:31:50;;;;;;;10.55;6.57;;;20.80;99.90;;;;;;4994041;28;20231;-94
2022/07/26 00:34:40;;;;;;;7.47;6.70;;;20.70;99.90;;;;;;4994797;28;20681;-93
2022/07/26 00:37:28;;;;;;;10.38;6.35;;;20.70;99.90;;;;;;5008903;28;20219;-91
2022/07/26 00:40:17;;;;;;;11.18;6.65;;;20.70;99.90;;;;;;5007002;28;20223;-91
2022/07/26 00:43:06;;;;;;;8.70;6.03;;;20.70;99.90;;;;;;5007671;28;20222;-92
2022/07/26 00:45:56;;;;;;;7.55;6.53;;;20.70;99.90;;;;;;5007209;28;20383;-92
2022/07/26 00:48:45;;;;;;;8.82;6.97;;;20.70;99.90;;;;;;5010018;28;20211;-94
2022/07/26 00:51:34;;;;;;;7.43;6.72;;;20.60;99.90;;;;;;5008989;28;20696;-94
2022/07/26 00:54:24;;;;;;;8.15;6.25;;;20.60;99.90;;;;;;5011087;28;20253;-90
2022/07/26 00:57:14;;;;;;;7.20;6.50;;;20.60;99.90;;;;;;5011125;28;20284;-93
2022/07/26 01:00:04;;;;;;;8.20;6.75;;;20.50;99.90;;;;;;5009529;28;20226;-92
2022/07/26 01:02:54;;;;;;;9.75;6.45;;;20.50;99.90;;;;;;4999839;28;20220;-91
2022/07/26 01:05:44;;;;;;;9.60;6.93;;;20.60;99.90;;;;;;5011171;28;20263;-89
2022/07/26 01:08:33;;;;;;;8.07;6.80;;;20.50;99.90;;;;;;5009577;28;20222;-91
2022/07/26 01:11:22;;;;;;;9.35;7.07;;;20.50;99.90;;;;;;5008160;28;20229;-90
2022/07/26 01:14:11;;;;;;;11.25;7.50;;;20.50;99.90;;;;;;4993756;28;20256;-92
2022/07/26 01:17:00;;;;;;;10.77;6.72;;;20.40;99.90;;;;;;5007927;28;20219;-92
2022/07/26 01:19:50;;;;;;;10.75;6.70;;;20.40;99.90;;;;;;5005182;28;20284;-93
2022/07/26 01:22:40;;;;;;;10.30;7.03;;;20.40;99.90;;;;;;5015097;28;20234;-92
2022/07/26 01:25:31;;;;;;;8.75;7.63;;;20.20;99.90;;;;;;4995385;28;20222;-92
2022/07/26 01:28:35;;;;;;;7.60;6.80;;;20.20;99.90;;;;;;4998761;28;20226;-92
2022/07/26 01:31:23;;;;;;;8.30;6.18;;;20.30;99.90;;;;;;5011993;28;20230;-94
2022/07/26 01:34:12;;;;;;;7.85;6.88;;;20.30;99.90;;;;;;5008041;28;20222;-92
2022/07/26 01:37:01;;;;;;;9.75;6.78;;;20.40;99.90;;;;;;5012316;28;20286;-94
2022/07/26 01:39:53;;;;;;;9.77;7.13;;;20.30;99.90;;;;;;5008779;28;20293;-92
2022/07/26 01:42:42;;;;;;;7.50;6.65;;;20.30;99.90;;;;;;5008654;28;20237;-83
2022/07/26 01:45:31;;;;;;;10.18;6.90;;;20.30;99.90;;;;;;5019930;28;20250;-91
2022/07/26 01:48:20;;;;;;;8.57;6.95;;;20.30;99.90;;;;;;5014956;28;20302;-93
2022/07/26 01:51:09;;;;;;;9.85;6.45;;;20.30;99.90;;;;;;5015692;28;20199;-92
2022/07/26 01:53:58;;;;;;;11.90;6.57;;;20.20;99.90;;;;;;5003470;28;20229;-92
2022/07/26 01:56:48;;;;;;;8.82;6.90;;;20.10;99.90;;;;;;5016394;28;20259;-91
2022/07/26 01:59:37;;;;;;;8.35;6.55;;;20.10;99.90;;;;;;5010774;28;20681;-92
2022/07/26 02:02:26;;;;;;;10.98;6.45;;;20.10;99.90;;;;;;5017914;28;20279;-92
2022/07/26 02:05:15;;;;;;;9.32;6.50;;;20.10;99.90;;;;;;5012510;28;20234;-91
2022/07/26 02:08:04;;;;;;;7.35;6.45;;;20.10;99.90;;;;;;5015442;28;20239;-91
2022/07/26 02:11:01;;;;;;;10.68;6.65;;;20.10;99.90;;;;;;5000463;28;20579;-90
2022/07/26 02:13:52;;;;;;;12.77;6.55;;;20.10;99.90;;;;;;5011330;28;20230;-90
2022/07/26 02:16:41;;;;;;;7.47;6.60;;;20.00;99.90;;;;;;5015036;28;20211;-82
2022/07/26 02:19:32;;;;;;;9.10;6.63;;;20.00;99.90;;;;;;5007521;28;20223;-90
2022/07/26 02:22:20;;;;;;;7.70;6.80;;;19.90;99.90;;;;;;5009649;28;20234;-90
2022/07/26 02:25:09;;;;;;;7.90;7.10;;;19.90;99.90;;;;;;5013042;28;20278;-90
2022/07/26 02:27:59;;;;;;;11.30;6.97;;;19.80;99.90;;;;;;5016699;28;20214;-89
2022/07/26 02:30:51;;;;;;;7.13;6.43;;;19.80;99.90;;;;;;5018645;28;20213;-91
2022/07/26 02:33:40;;;;;;;9.00;7.10;;;20.00;99.90;;;;;;5015863;28;20219;-91
2022/07/26 02:36:29;;;;;;;15.20;7.30;;;19.80;99.90;;;;;;5007237;28;20223;-91
2022/07/26 02:39:18;;;;;;;10.35;7.38;;;19.80;99.90;;;;;;5020375;28;20211;-91
2022/07/26 02:42:07;;;;;;;10.35;6.68;;;19.90;99.90;;;;;;5023710;28;20230;-90
2022/07/26 02:44:56;;;;;;;8.55;6.50;;;19.90;99.90;;;;;;5018020;28;20214;-91
2022/07/26 02:47:48;;;;;;;9.55;7.00;;;19.90;99.90;;;;;;5016846;28;20220;-91
2022/07/26 02:50:36;;;;;;;9.52;6.93;;;19.80;99.90;;;;;;5022176;28;20202;-89
2022/07/26 02:53:25;;;;;;;7.82;6.35;;;19.80;99.90;;;;;;5016273;28;20271;-90
2022/07/26 02:56:14;;;;;;;8.48;7.32;;;19.80;99.90;;;;;;5020576;28;20266;-88
2022/07/26 02:59:02;;;;;;;9.55;6.60;;;19.70;99.90;;;;;;5014488;28;20230;-88
2022/07/26 03:01:51;;;;;;;7.50;6.72;;;19.70;99.90;;;;;;5011318;28;20217;-88
2022/07/26 03:04:42;;;;;;;8.70;6.75;;;19.70;99.90;;;;;;5023848;28;20203;-89
2022/07/26 03:07:31;;;;;;;21.70;6.60;;;19.70;99.90;;;;;;5017676;28;20203;-89
2022/07/26 03:10:20;;;;;;;10.45;7.10;;;19.70;99.90;;;;;;5020426;28;20221;-88
2022/07/26 03:13:09;;;;;;;9.98;6.60;;;19.80;99.90;;;;;;5002076;28;20203;-89
2022/07/26 03:15:57;;;;;;;7.18;6.40;;;19.70;99.90;;;;;;5018894;28;20226;-89
2022/07/26 03:18:46;;;;;;;12.35;6.75;;;19.80;99.90;;;;;;4993870;28;20203;-90
2022/07/26 03:21:36;;;;;;;8.23;7.38;;;19.80;99.90;;;;;;5021395;28;20306;-89
2022/07/26 03:24:25;;;;;;;8.82;7.15;;;19.80;99.90;;;;;;5006243;28;20214;-90
2022/07/26 03:27:14;;;;;;;8.50;7.00;;;19.80;99.90;;;;;;5011890;28;20249;-90
2022/07/26 03:30:03;;;;;;;9.95;7.32;;;19.80;99.90;;;;;;5016881;28;20241;-89
2022/07/26 03:32:52;;;;;;;7.68;6.88;;;19.80;99.90;;;;;;5015948;28;20249;-90
2022/07/26 03:35:40;;;;;;;8.57;7.63;;;19.90;99.90;;;;;;5016166;28;20229;-90
2022/07/26 03:38:35;;;;;;;9.85;8.00;;;19.90;99.90;;;;;;5003394;28;20282;-90
2022/07/26 03:41:24;;;;;;;10.63;7.72;;;20.00;99.90;;;;;;5006475;28;20230;-87
2022/07/26 03:44:12;;;;;;;8.60;7.38;;;19.90;99.90;;;;;;5015840;28;20207;-90
2022/07/26 03:47:01;;;;;;;9.27;7.53;;;19.90;99.90;;;;;;5003804;28;20264;-90
2022/07/26 03:49:49;;;;;;;10.88;7.57;;;19.80;99.90;;;;;;5014173;28;20242;-85
2022/07/26 03:52:38;;;;;;;8.70;7.47;;;19.90;99.90;;;;;;5010697;28;20222;-90
2022/07/26 03:58:37;;;;;;;11.15;7.57;;;19.90;99.90;;;;;;5016861;28;20226;-90
2022/07/26 04:01:25;;;;;;;9.82;7.75;;;19.80;99.90;;;;;;5015728;28;20223;-91
2022/07/26 04:04:17;;;;;;;13.50;7.65;;;20.00;99.90;;;;;;5015219;28;20211;-91
2022/07/26 04:07:12;;;;;;;8.00;7.10;;;20.00;99.90;;;;;;5015517;28;20220;-92
2022/07/26 04:10:02;;;;;;;8.15;7.35;;;19.90;99.90;;;;;;5003709;28;20214;-92
2022/07/26 04:12:52;;;;;;;10.00;7.85;;;20.00;99.90;;;;;;5019899;28;20211;-87
2022/07/26 04:15:41;;;;;;;9.85;7.47;;;20.10;99.90;;;;;;5009718;28;20275;-91
2022/07/26 04:18:30;;;;;;;8.20;7.28;;;20.20;99.90;;;;;;5034200;28;20206;-92
2022/07/26 04:21:19;;;;;;;9.40;6.75;;;20.20;99.90;;;;;;5005659;28;20233;-92
2022/07/26 04:24:08;;;;;;;9.65;6.72;;;20.30;99.90;;;;;;5014064;28;20245;-92
2022/07/26 04:26:58;;;;;;;28.15;10.70;;;20.40;99.90;;;;;;5010004;28;20238;-88
2022/07/26 04:29:48;;;;;;;8.18;7.35;;;20.40;99.90;;;;;;5021389;28;20221;-93
2022/07/26 04:32:37;;;;;;;8.07;6.70;;;20.40;99.90;;;;;;4998164;28;20215;-92
2022/07/26 04:35:25;;;;;;;7.22;6.53;;;20.40;99.90;;;;;;4995794;28;20247;-91
2022/07/26 04:38:15;;;;;;;8.95;6.85;;;20.40;99.90;;;;;;5016675;28;20496;-92
2022/07/26 04:41:03;;;;;;;10.13;6.75;;;20.60;99.90;;;;;;4996709;28;20213;-92
2022/07/26 04:43:52;;;;;;;9.15;6.38;;;20.70;99.90;;;;;;5005985;28;20217;-93
2022/07/26 04:46:43;;;;;;;9.48;6.43;;;20.80;99.90;;;;;;5018113;28;20210;-94
2022/07/26 04:49:33;;;;;;;7.20;6.15;;;20.60;99.90;;;;;;5017388;28;20203;-94
2022/07/26 04:52:22;;;;;;;8.38;6.95;;;20.70;99.90;;;;;;5017973;28;20210;-92
2022/07/26 04:55:13;;;;;;;11.32;6.60;;;20.70;99.90;;;;;;5008562;28;20225;-92
2022/07/26 04:58:02;;;;;;;9.77;6.55;;;20.60;99.90;;;;;;5008270;28;21040;-91
2022/07/26 05:00:50;;;;;;;7.95;6.10;;;20.70;99.90;;;;;;5007150;22;20222;-74
2022/07/26 05:04:01;;;;;;;7.45;6.63;;;20.90;99.90;;;;;;4965132;28;20233;-75
2022/07/26 05:06:49;;;;;;;10.15;6.15;;;21.00;99.90;;;;;;4977969;28;20222;-75
2022/07/26 05:09:38;;;;;;;9.65;5.93;;;21.00;99.90;;;;;;4979671;28;20230;-74
2022/07/26 05:12:27;;;;;;;6.95;5.75;;;21.00;99.90;;;;;;4968010;28;20224;-73
2022/07/26 05:15:16;;;;;;;10.00;6.07;;;21.00;99.90;;;;;;4967826;28;20232;-74
2022/07/26 05:18:07;;;;;;;12.82;6.60;;;21.00;99.90;;;;;;4975622;28;20229;-74
2022/07/26 05:21:02;;;;;;;13.57;6.38;;;21.00;99.90;;;;;;4977977;28;20227;-75
2022/07/26 05:23:50;;;;;;;10.73;6.25;;;21.00;99.90;;;;;;4977249;28;20326;-75
2022/07/26 05:26:39;;;;;;;8.38;6.28;;;21.20;99.90;;;;;;4966865;28;20223;-74
2022/07/26 05:29:28;;;;;;;7.95;6.20;;;21.10;99.90;;;;;;4980885;28;20227;-74
2022/07/26 05:32:17;;;;;;;13.25;6.05;;;21.20;99.90;;;;;;4967650;28;20227;-72
2022/07/26 05:35:07;;;;;;;15.95;6.10;;;21.50;99.90;;;;;;4978160;28;20231;-74
2022/07/26 05:37:57;;;;;;;8.48;6.22;;;21.80;99.90;;;;;;4975814;28;20245;-75
2022/07/26 05:40:46;;;;;;;7.50;6.25;;;21.90;99.90;;;;;;4979851;28;20237;-75
2022/07/26 05:43:38;;;;;;;6.63;5.63;;;22.10;99.90;;;;;;4981142;28;20223;-76
2022/07/26 05:46:29;;;;;;;6.35;5.75;;;22.10;99.90;;;;;;4984584;28;20274;-74
2022/07/26 05:49:18;;;;;;;9.05;5.75;;;22.00;99.90;;;;;;4981405;28;20219;-73
2022/07/26 05:52:07;;;;;;;11.68;6.00;;;22.00;99.90;;;;;;4975162;28;20808;-72
2022/07/26 05:54:57;;;;;;;6.20;4.93;;;22.00;99.90;;;;;;4973439;28;20220;-71
2022/07/26 05:57:46;;;;;;;6.95;5.72;;;21.90;99.90;;;;;;4968836;28;20224;-71
2022/07/26 06:00:37;;;;;;;5.80;5.15;;;22.00;99.90;;;;;;4979893;28;20222;-71
2022/07/26 06:03:26;;;;;;;8.27;5.63;;;22.30;99.90;;;;;;4973395;28;20305;-70
2022/07/26 06:06:14;;;;;;;7.07;5.70;;;22.50;99.90;;;;;;4972767;28;20308;-71
2022/07/26 06:09:03;;;;;;;7.30;5.47;;;22.90;99.90;;;;;;4966281;28;20242;-76
2022/07/26 06:11:53;;;;;;;6.75;5.10;;;23.20;99.90;;;;;;4982685;28;20234;-76
2022/07/26 06:14:42;;;;;;;16.92;5.85;;;23.20;99.90;;;;;;4979735;28;20698;-76
2022/07/26 06:17:31;;;;;;;9.32;5.57;;;23.10;99.90;;;;;;4980242;28;20226;-77
2022/07/26 06:20:20;;;;;;;12.93;5.40;;;23.30;99.90;;;;;;4988598;28;20219;-74
2022/07/26 06:23:09;;;;;;;9.00;5.53;;;23.30;99.90;;;;;;4975539;28;20219;-77
2022/07/26 06:25:57;;;;;;;9.77;5.45;;;23.40;99.90;;;;;;4969391;28;20231;-77
2022/07/26 06:28:50;;;;;;;5.55;5.05;;;23.40;99.90;;;;;;4968556;28;20231;-76
2022/07/26 06:31:38;;;;;;;9.73;4.93;;;23.50;99.90;;;;;;4977741;28;20632;-76
2022/07/26 06:34:27;;;;;;;5.25;4.75;;;23.50;99.90;;;;;;4975282;28;20227;-77
2022/07/26 06:37:16;;;;;;;5.40;4.50;;;23.60;99.90;;;;;;4978205;28;20267;-78
2022/07/26 06:40:06;;;;;;;9.20;5.35;;;23.70;99.90;;;;;;4988754;28;20220;-75
2022/07/26 06:42:55;;;;;;;5.97;4.90;;;23.70;99.90;;;;;;4983117;28;20218;-75
2022/07/26 06:45:52;;;;;;;7.20;4.22;;;23.80;99.90;;;;;;4981995;28;20230;-77
2022/07/26 06:48:41;;;;;;;5.85;4.45;;;23.90;99.90;;;;;;4980329;28;20214;-77
2022/07/26 06:51:35;;;;;;;5.93;4.32;;;24.00;99.90;;;;;;4980795;28;20248;-78
2022/07/26 06:54:23;;;;;;;6.70;4.80;;;24.10;99.90;;;;;;4969589;28;20220;-75
2022/07/26 06:57:12;;;;;;;11.82;4.55;;;24.50;99.90;;;;;;4980913;28;20218;-76
2022/07/26 07:00:00;;;;;;;5.68;4.28;;;24.70;99.90;;;;;;4981307;28;20231;-75
2022/07/26 07:02:50;;;;;;;6.30;4.40;;;24.70;99.90;;;;;;4985123;28;20852;-74
2022/07/26 07:05:39;;;;;;;10.48;4.35;;;25.00;99.90;;;;;;4979562;28;20251;-75
2022/07/26 07:08:28;;;;;;;6.88;3.97;;;25.20;99.90;;;;;;4967225;28;20223;-75
2022/07/26 07:11:16;;;;;;;8.63;4.57;;;25.40;99.90;;;;;;4978405;28;20366;-74
2022/07/26 07:14:07;;;;;;;9.82;4.40;;;25.40;99.90;;;;;;4979773;28;20610;-74
2022/07/26 07:16:57;;;;;;;5.70;4.38;;;25.50;99.90;;;;;;4982487;28;20300;-74
2022/07/26 07:19:47;;;;;;;7.13;5.03;;;25.60;99.90;;;;;;4967911;28;20326;-75
2022/07/26 07:22:36;;;;;;;5.53;4.28;;;25.80;99.90;;;;;;4969937;28;20219;-75
2022/07/26 07:25:24;;;;;;;7.95;4.20;;;25.80;99.90;;;;;;4989459;28;20236;-75
2022/07/26 07:28:18;;;;;;;7.05;4.13;;;25.80;99.90;;;;;;4982806;28;20382;-76
2022/07/26 07:31:07;;;;;;;8.68;4.50;;;26.00;99.90;;;;;;4972932;28;20247;-74
2022/07/26 07:33:56;;;;;;;8.77;4.40;;;26.10;99.90;;;;;;4984894;28;20219;-75
2022/07/26 07:36:47;;;;;;;6.72;4.15;;;26.50;99.90;;;;;;4980669;28;20226;-74
2022/07/26 07:39:35;;;;;;;6.57;4.25;;;26.50;99.90;;;;;;4984489;28;20402;-76
2022/07/26 07:42:26;;;;;;;5.55;4.20;;;26.60;99.90;;;;;;4985269;28;20645;-75
2022/07/26 07:45:14;;;;;;;8.32;4.30;;;27.10;99.90;;;;;;4966907;28;20246;-75
2022/07/26 07:48:03;;;;;;;4.70;4.30;;;27.40;99.90;;;;;;4972176;28;20280;-76
2022/07/26 07:50:52;;;;;;;6.10;4.13;;;27.20;99.90;;;;;;4985980;28;20289;-74
2022/07/26 07:53:42;;;;;;;10.68;4.60;;;27.40;99.90;;;;;;4981300;28;20212;-75
2022/07/26 07:56:44;;;;;;;7.05;4.20;;;27.50;99.90;;;;;;4969540;28;20225;-74
2022/07/26 07:59:32;;;;;;;10.23;4.20;;;27.30;99.90;;;;;;4988221;28;20223;-75
2022/07/26 08:02:26;;;;;;;5.95;4.55;;;27.30;99.90;;;;;;4974859;28;20226;-75
2022/07/26 08:05:15;;;;;;;5.78;4.30;;;27.40;99.90;;;;;;4978235;28;20746;-73
2022/07/26 08:08:07;;;;;;;5.30;4.57;;;27.50;99.90;;;;;;4985302;28;20237;-74
2022/07/26 08:10:57;;;;;;;8.05;4.25;;;27.30;99.90;;;;;;4983073;28;20722;-74
2022/07/26 08:13:46;;;;;;;4.90;4.18;;;27.00;99.90;;;;;;4984261;28;20318;-75
2022/07/26 08:16:35;;;;;;;7.20;4.30;;;27.00;99.90;;;;;;4967819;28;20288;-74
2022/07/26 08:19:24;;;;;;;7.35;4.10;;;27.10;99.90;;;;;;4975158;28;20338;-75
2022/07/26 08:22:17;;;;;;;7.38;4.75;;;26.90;99.90;;;;;;4980898;28;20304;-73
2022/07/26 08:25:09;;;;;;;6.68;4.18;;;27.10;99.90;;;;;;4989290;28;20218;-74
2022/07/26 08:27:59;;;;;;;9.80;4.13;;;27.10;99.90;;;;;;4982346;28;20331;-76
2022/07/26 08:30:51;;;;;;;5.00;4.13;;;27.10;99.90;;;;;;4979448;28;20808;-74
2022/07/26 08:33:40;;;;;;;4.65;3.90;;;27.10;99.90;;;;;;4969912;28;20228;-75
2022/07/26 08:36:34;;;;;;;6.82;4.40;;;27.10;99.90;;;;;;4981669;28;20323;-77
2022/07/26 08:39:22;;;;;;;6.65;4.28;;;27.40;99.90;;;;;;4985999;28;20234;-75
2022/07/26 08:42:14;;;;;;;5.22;4.32;;;27.60;99.90;;;;;;4979372;28;20301;-72
2022/07/26 08:45:05;;;;;;;4.63;4.20;;;27.80;99.90;;;;;;4978643;28;20297;-75
2022/07/26 08:47:55;;;;;;;5.47;4.55;;;28.30;99.90;;;;;;4964116;28;20238;-73
2022/07/26 08:51:08;;;;;;;5.30;4.67;;;28.60;99.90;;;;;;4983299;28;20614;-74
2022/07/26 08:54:00;;;;;;;4.90;4.40;;;28.90;99.00;;;;;;4978604;28;20255;-76
2022/07/26 08:56:53;;;;;;;6.68;4.47;;;29.30;97.30;;;;;;4978571;28;20651;-76
2022/07/26 08:59:42;;;;;;;4.95;4.45;;;29.40;97.90;;;;;;4980568;28;20228;-76
2022/07/26 09:02:40;;;;;;;6.10;4.18;;;29.50;95.50;;;;;;4964607;28;20229;-78
2022/07/26 09:05:32;;;;;;;9.63;5.20;;;29.40;95.10;;;;;;4945257;28;20370;-74
2022/07/26 09:08:27;;;;;;;6.38;4.38;;;29.30;97.10;;;;;;4963143;28;20608;-78
2022/07/26 09:11:27;;;;;;;9.40;4.40;;;29.60;94.50;;;;;;4963821;28;20251;-75
2022/07/26 09:14:16;;;;;;;10.65;4.80;;;30.20;94.20;;;;;;4959112;28;20230;-74
2022/07/26 09:17:06;;;;;;;8.45;4.50;;;31.00;92.50;;;;;;4960895;28;20227;-76
2022/07/26 09:20:06;;;;;;;7.25;4.72;;;31.80;91.90;;;;;;4952966;28;20230;-74
2022/07/26 09:23:03;;;;;;;7.55;4.43;;;31.80;91.30;;;;;;4952203;28;20251;-74
2022/07/26 09:25:53;;;;;;;8.43;4.38;;;31.80;90.80;;;;;;4959715;28;20223;-77
2022/07/26 09:28:42;;;;;;;8.63;4.50;;;31.00;90.60;;;;;;4953152;28;20354;-75
2022/07/26 09:31:32;;;;;;;8.20;4.68;;;30.60;92.50;;;;;;4967354;28;20226;-76
2022/07/26 09:34:25;;;;;;;9.80;5.05;;;30.90;91.30;;;;;;4967728;28;20223;-76
2022/07/26 09:37:16;;;;;;;5.25;4.50;;;32.70;90.00;;;;;;4960716;28;20247;-77
2022/07/26 09:40:08;;;;;;;9.60;4.88;;;34.40;87.10;;;;;;4947795;28;20226;-74
2022/07/26 09:42:59;;;;;;;11.75;4.97;;;35.30;80.70;;;;;;4955503;28;20229;-76
2022/07/26 09:46:03;;;;;;;10.07;5.72;;;34.30;77.00;;;;;;4956834;28;20308;-76
2022/07/26 09:48:54;;;;;;;7.10;4.95;;;33.80;79.70;;;;;;4968209;28;20230;-76
2022/07/26 09:51:59;;;;;;;11.57;5.20;;;32.40;81.60;;;;;;4949113;28;20227;-75
2022/07/26 09:54:50;;;;;;;11.75;5.28;;;31.70;87.20;;;;;;4962405;28;20207;-75
2022/07/26 09:57:38;;;;;;;9.20;5.60;;;31.70;88.10;;;;;;4963179;28;20593;-76
2022/07/26 10:00:27;;;;;;;9.65;5.10;;;32.80;85.80;;;;;;4967704;28;20234;-75
2022/07/26 10:03:16;;;;;;;7.43;4.95;;;33.00;81.30;;;;;;4965984;28;20230;-77
2022/07/26 10:06:06;;;;;;;12.68;5.22;;;33.10;81.00;;;;;;4948411;28;20231;-75
2022/07/26 10:08:56;;;;;;;7.70;4.75;;;33.00;83.00;;;;;;4958398;28;20222;-77
2022/07/26 10:11:52;;;;;;;7.15;5.00;;;32.60;81.50;;;;;;4967871;28;20219;-76
2022/07/26 10:14:44;;;;;;;5.65;5.05;;;32.00;87.80;;;;;;4951234;28;20219;-76
2022/07/26 10:17:42;;;;;;;8.02;5.00;;;31.60;86.80;;;;;;4964561;28;20358;-76
2022/07/26 10:20:51;;;;;;;7.15;5.32;;;31.90;86.50;;;;;;4965442;28;21940;-76
2022/07/26 10:23:43;;;;;;;8.45;5.43;;;32.60;83.90;;;;;;4954631;28;21546;-76
2022/07/26 10:26:41;;;;;;;7.75;4.57;;;32.70;85.10;;;;;;4964487;28;20227;-77
2022/07/26 10:29:31;;;;;;;5.47;4.85;;;32.60;83.10;;;;;;4969951;28;20250;-75
2022/07/26 10:32:20;;;;;;;8.25;4.75;;;32.80;81.60;;;;;;4957268;28;20238;-76
2022/07/26 10:35:30;;;;;;;10.30;5.40;;;33.70;81.30;;;;;;4963153;28;20305;-77
2022/07/26 10:38:25;;;;;;;5.65;5.15;;;33.30;79.50;;;;;;4961742;28;20286;-75
2022/07/26 10:41:30;;;;;;;7.28;4.88;;;33.00;82.10;;;;;;4964832;28;20222;-77
2022/07/26 10:44:25;;;;;;;7.07;5.60;;;32.30;82.20;;;;;;4961636;28;20238;-78
2022/07/26 10:47:17;;;;;;;13.10;5.10;;;31.90;82.20;;;;;;4966440;28;20215;-76
2022/07/26 10:50:06;;;;;;;9.13;5.13;;;31.70;84.00;;;;;;4965277;28;20238;-77
2022/07/26 10:52:58;;;;;;;11.93;4.93;;;32.10;84.20;;;;;;4954153;28;20246;-77
2022/07/26 10:55:49;;;;;;;13.07;5.68;;;32.10;82.70;;;;;;4961360;28;20289;-75
2022/07/26 10:58:42;;;;;;;8.63;5.80;;;31.90;83.60;;;;;;4963444;28;20235;-76
2022/07/26 11:01:34;;;;;;;9.43;5.60;;;31.50;83.60;;;;;;4955080;28;20230;-75
2022/07/26 11:04:25;;;;;;;9.50;5.65;;;31.10;86.90;;;;;;4958229;28;20266;-75
2022/07/26 11:07:14;;;;;;;13.00;6.38;;;30.70;90.10;;;;;;4959934;28;20234;-75
2022/07/26 11:10:03;;;;;;;9.50;5.97;;;30.20;88.60;;;;;;4956322;28;20229;-75
2022/07/26 11:13:07;;;;;;;9.20;5.50;;;30.30;90.10;;;;;;4959480;28;20310;-76
2022/07/26 11:16:00;;;;;;;7.93;4.97;;;30.50;90.30;;;;;;4956007;28;20596;-75
2022/07/26 11:18:51;;;;;;;10.00;5.25;;;30.80;87.30;;;;;;4958761;28;20223;-76
2022/07/26 11:21:41;;;;;;;9.35;5.32;;;30.70;89.70;;;;;;4965856;28;20274;-75
2022/07/26 11:24:30;;;;;;;7.80;5.40;;;30.80;89.60;;;;;;4954444;28;20215;-74
2022/07/26 11:27:18;;;;;;;6.78;5.47;;;30.70;88.30;;;;;;4955911;28;20320;-77
2022/07/26 11:30:08;;;;;;;7.32;5.60;;;30.40;87.20;;;;;;4957709;28;21232;-74
2022/07/26 11:32:58;;;;;;;8.77;5.63;;;29.80;89.80;;;;;;4950275;28;20223;-75
2022/07/26 11:35:50;;;;;;;14.30;6.00;;;29.10;91.10;;;;;;4961869;28;20274;-74
2022/07/26 11:38:52;;;;;;;10.15;5.65;;;28.60;92.80;;;;;;4963459;28;20728;-74
2022/07/26 11:41:43;;;;;;;10.07;6.13;;;28.20;94.10;;;;;;4961798;28;20270;-75
2022/07/26 11:44:32;;;;;;;8.77;6.40;;;27.90;95.90;;;;;;4956400;28;20587;-75
2022/07/26 11:47:23;;;;;;;10.50;6.18;;;27.70;96.40;;;;;;4968739;28;20362;-74
2022/07/26 11:50:13;;;;;;;8.95;5.88;;;27.70;96.00;;;;;;4962821;28;20294;-75
2022/07/26 11:53:20;;;;;;;13.32;5.85;;;27.50;96.40;;;;;;4966179;28;20239;-74
2022/07/26 11:56:19;;;;;;;10.90;5.80;;;27.20;97.10;;;;;;4949828;28;21039;-76
2022/07/26 11:59:13;;;;;;;13.63;5.70;;;27.20;97.00;;;;;;4960471;28;20617;-76
2022/07/26 12:02:03;;;;;;;10.45;5.43;;;27.00;97.40;;;;;;4961288;28;20236;-75
2022/07/26 12:05:13;;;;;;;9.15;5.93;;;27.10;97.90;;;;;;4951632;28;20224;-75
2022/07/26 12:08:05;;;;;;;8.05;5.70;;;26.90;99.40;;;;;;4963828;28;20338;-76
2022/07/26 12:10:54;;;;;;;11.68;5.68;;;26.60;99.90;;;;;;4967193;28;20223;-75
2022/07/26 12:14:02;;;;;;;9.48;6.15;;;26.40;99.90;;;;;;4948296;28;20228;-76
2022/07/26 12:16:51;;;;;;;15.40;5.93;;;26.10;99.90;;;;;;4969412;28;20307;-75
2022/07/26 12:19:40;;;;;;;12.30;6.28;;;26.00;99.90;;;;;;4964963;28;20228;-75
2022/07/26 12:22:29;;;;;;;12.80;6.60;;;25.80;99.90;;;;;;4962213;28;20657;-75
2022/07/26 12:25:25;;;;;;;9.55;7.15;;;25.50;99.90;;;;;;4949177;28;20227;-75
2022/07/26 12:28:14;;;;;;;19.08;7.93;;;25.40;99.90;;;;;;4964034;28;20646;-75
2022/07/26 12:31:04;;;;;;;16.45;8.98;;;25.10;99.90;;;;;;4950897;28;20716;-74
2022/07/26 12:33:53;;;;;;;11.73;8.93;;;24.60;99.90;;;;;;4966963;28;20231;-75
2022/07/26 12:36:42;;;;;;;12.00;8.80;;;24.40;99.90;;;;;;4961753;28;20299;-75
2022/07/26 12:39:31;;;;;;;11.35;8.65;;;24.30;99.90;;;;;;4956307;28;20266;-74
2022/07/26 12:42:21;;;;;;;11.73;8.98;;;24.30;99.90;;;;;;4960222;28;20228;-74
2022/07/26 12:45:22;;;;;;;12.70;8.65;;;24.10;99.90;;;;;;4953363;28;20256;-74
2022/07/26 12:48:12;;;;;;;11.45;9.52;;;24.20;99.90;;;;;;4964788;28;20570;-73
2022/07/26 12:51:01;;;;;;;13.60;8.27;;;24.00;99.90;;;;;;4960343;28;20237;-74
2022/07/26 12:53:49;;;;;;;13.00;8.65;;;23.80;99.90;;;;;;4947420;28;20730;-74
2022/07/26 12:56:42;;;;;;;11.98;8.20;;;23.60;99.90;;;;;;4962241;28;20224;-74
2022/07/26 12:59:34;;;;;;;13.35;8.20;;;23.50;99.90;;;;;;4966261;28;20566;-74
2022/07/26 13:02:29;;;;;;;22.25;9.95;;;23.50;99.90;;;;;;4971213;28;20251;-74
2022/07/26 13:05:20;;;;;;;15.18;9.95;;;23.30;99.90;;;;;;4980839;28;20278;-74
2022/07/26 13:08:08;;;;;;;17.17;10.07;;;23.10;99.90;;;;;;4966557;28;20240;-74
2022/07/26 13:10:57;;;;;;;13.95;9.95;;;22.90;99.90;;;;;;4968073;28;20257;-73
2022/07/26 13:13:48;;;;;;;11.48;9.57;;;22.70;99.90;;;;;;4977708;28;20305;-73
2022/07/26 13:16:37;;;;;;;13.55;9.73;;;22.60;99.90;;;;;;4981051;28;20222;-72
2022/07/26 13:19:25;;;;;;;17.20;10.27;;;22.30;99.90;;;;;;4982589;28;20222;-73
2022/07/26 13:22:15;;;;;;;16.67;10.52;;;22.50;99.90;;;;;;4979274;28;20312;-71
2022/07/26 13:25:05;;;;;;;13.70;11.23;;;22.30;99.90;;;;;;4977156;28;20266;-73
2022/07/26 13:27:56;;;;;;;13.40;10.35;;;22.00;99.90;;;;;;4977835;28;20223;-73
2022/07/26 13:30:44;;;;;;;18.88;11.48;;;21.90;99.90;;;;;;4974602;28;20285;-73
2022/07/26 13:33:33;;;;;;;16.42;11.68;;;21.90;99.90;;;;;;4964540;28;20251;-73
2022/07/26 13:36:22;;;;;;;13.15;11.77;;;22.00;99.90;;;;;;4976755;28;20299;-73
2022/07/26 13:39:12;;;;;;;20.25;11.70;;;22.10;99.90;;;;;;4978698;28;20289;-73
2022/07/26 13:42:01;;;;;;;14.38;11.30;;;22.10;99.90;;;;;;4962544;28;20231;-74
2022/07/26 13:44:50;;;;;;;13.73;11.73;;;22.20;99.90;;;;;;4981077;28;20214;-73
2022/07/26 13:47:38;;;;;;;17.60;12.88;;;22.30;99.90;;;;;;4981861;28;20226;-73
2022/07/26 13:50:27;;;;;;;13.90;11.70;;;22.40;99.90;;;;;;4986202;28;20231;-73
2022/07/26 13:53:16;;;;;;;15.15;13.27;;;22.40;99.90;;;;;;4982722;28;20320;-74
2022/07/26 13:56:08;;;;;;;16.05;13.73;;;22.40;99.90;;;;;;4982886;28;20278;-75
2022/07/26 13:58:57;;;;;;;16.33;12.85;;;22.50;99.90;;;;;;4985682;28;20726;-75
2022/07/26 14:01:48;;;;;;;13.60;12.20;;;22.40;99.90;;;;;;4973115;28;20350;-75
2022/07/26 14:04:37;;;;;;;13.20;11.70;;;22.50;99.90;;;;;;4962651;28;20223;-78
2022/07/26 14:07:26;;;;;;;14.00;11.93;;;22.50;99.90;;;;;;4964562;28;20266;-75
2022/07/26 14:10:15;;;;;;;12.27;10.98;;;22.50;99.90;;;;;;4953399;28;20319;-76
2022/07/26 14:13:05;;;;;;;13.93;12.10;;;22.50;99.90;;;;;;4953323;28;20234;-75
2022/07/26 14:15:54;;;;;;;11.98;10.77;;;22.70;99.90;;;;;;4950068;28;20224;-78
2022/07/26 14:18:42;;;;;;;41.67;13.20;;;22.70;99.90;;;;;;4960127;28;20234;-78
2022/07/26 14:21:33;;;;;;;13.77;11.35;;;22.70;99.90;;;;;;4961389;28;20872;-78
2022/07/26 14:24:34;;;;;;;11.75;10.40;;;22.80;99.90;;;;;;4959189;28;20226;-79
2022/07/26 14:27:23;;;;;;;14.07;10.23;;;22.90;99.90;;;;;;4962327;28;20247;-78
2022/07/26 14:30:14;;;;;;;11.52;8.77;;;22.80;99.90;;;;;;4949006;28;20632;-79
2022/07/26 14:33:03;;;;;;;10.65;9.55;;;22.80;99.90;;;;;;4962087;28;20391;-78
2022/07/26 14:35:52;;;;;;;11.10;9.77;;;22.80;99.90;;;;;;4960659;28;20223;-77
2022/07/26 14:38:42;;;;;;;13.50;9.60;;;22.80;99.90;;;;;;4947732;28;20266;-78
2022/07/26 14:41:33;;;;;;;9.82;8.60;;;22.80;99.90;;;;;;4959798;28;20250;-75
2022/07/26 14:44:24;;;;;;;10.00;8.90;;;22.80;99.90;;;;;;4960732;28;20708;-77
2022/07/26 14:47:14;;;;;;;9.75;8.75;;;22.80;99.90;;;;;;4950934;28;20253;-76